Time;durP1;ratioP1;P1;durP2;ratioP2;P2;SDS_P1;SDS_P2;PMS_P1;PMS_P2;Temp;Humidity;BMP_temperature;BMP_pressure;BME280_temperature;BME280_humidity;BME280_pressure;Samples;Min_cycle;Max_cycle;Signal;HPM_P1;HPM_P2
2023/05/27 00:02:06;;;;;;;10.30;2.90;;;11.50;76.10;;;;;;4974380;28;20483;-84
2023/05/27 00:04:31;;;;;;;13.90;3.10;;;11.50;76.20;;;;;;4973331;28;20034;-84
2023/05/27 00:06:57;;;;;;;12.77;2.67;;;11.40;76.60;;;;;;4974505;28;20041;-83
2023/05/27 00:09:23;;;;;;;17.67;3.87;;;11.40;76.80;;;;;;4974253;28;20041;-84
2023/05/27 00:11:49;;;;;;;11.13;2.53;;;11.40;76.90;;;;;;4974328;28;20034;-85
2023/05/27 00:14:17;;;;;;;13.30;3.37;;;11.30;77.00;;;;;;4974689;28;20382;-85
2023/05/27 00:16:43;;;;;;;12.47;2.00;;;11.30;77.30;;;;;;4992005;28;20055;-85
2023/05/27 00:19:08;;;;;;;13.13;2.60;;;11.30;77.50;;;;;;4993096;28;20062;-84
2023/05/27 00:21:34;;;;;;;14.50;3.10;;;11.30;77.50;;;;;;4978027;28;20090;-85
2023/05/27 00:24:00;;;;;;;16.17;3.50;;;11.30;77.70;;;;;;4977832;28;20046;-84
2023/05/27 00:26:26;;;;;;;17.77;3.70;;;11.20;77.60;;;;;;4992942;28;20038;-84
2023/05/27 00:28:51;;;;;;;11.67;2.57;;;11.20;77.70;;;;;;4977781;28;20105;-85
2023/05/27 00:31:17;;;;;;;16.57;3.20;;;11.10;78.00;;;;;;4977979;28;20062;-85
2023/05/27 00:33:43;;;;;;;12.13;2.80;;;11.10;78.20;;;;;;4976575;28;20027;-85
2023/05/27 00:36:09;;;;;;;10.87;2.87;;;11.10;78.70;;;;;;4976450;28;20054;-85
2023/05/27 00:38:36;;;;;;;16.00;3.00;;;11.10;78.90;;;;;;4992807;28;20475;-83
2023/05/27 00:41:03;;;;;;;16.50;3.30;;;11.00;79.20;;;;;;4976697;28;20035;-84
2023/05/27 00:43:30;;;;;;;9.33;2.47;;;11.00;79.00;;;;;;4977820;28;20027;-86
2023/05/27 00:45:56;;;;;;;16.97;3.63;;;11.00;79.20;;;;;;4992594;28;20031;-84
2023/05/27 00:48:22;;;;;;;16.33;3.40;;;10.90;79.40;;;;;;4976836;28;20073;-83
2023/05/27 00:50:48;;;;;;;13.20;3.20;;;10.90;79.40;;;;;;4977604;28;20035;-85
2023/05/27 00:53:15;;;;;;;16.13;2.53;;;10.90;79.10;;;;;;4977432;28;20038;-86
2023/05/27 00:55:41;;;;;;;11.20;2.63;;;10.90;79.20;;;;;;4991971;28;20074;-84
2023/05/27 00:58:09;;;;;;;11.57;2.80;;;10.80;79.30;;;;;;4977262;28;20037;-84
2023/05/27 01:00:37;;;;;;;16.03;3.33;;;10.80;79.70;;;;;;4976350;28;20780;-85
2023/05/27 01:03:03;;;;;;;17.10;3.03;;;10.80;80.30;;;;;;4977165;28;20039;-85
2023/05/27 01:05:29;;;;;;;14.20;3.20;;;10.70;80.60;;;;;;4977307;28;20039;-83
2023/05/27 01:08:11;;;;;;;18.17;3.63;;;10.80;80.90;;;;;;4977141;28;20471;-84
2023/05/27 01:10:53;;;;;;;16.50;4.23;;;10.70;80.80;;;;;;4977084;28;20019;-85
2023/05/27 01:13:46;;;;;;;16.47;3.17;;;10.70;80.90;;;;;;4978021;28;20046;-83
2023/05/27 01:16:16;;;;;;;14.57;3.47;;;10.70;81.00;;;;;;4977002;28;20070;-87
2023/05/27 01:18:46;;;;;;;19.10;3.43;;;10.70;81.00;;;;;;4976962;28;20491;-84
2023/05/27 01:21:14;;;;;;;14.90;3.07;;;10.60;81.10;;;;;;4976811;28;20101;-85
2023/05/27 01:23:41;;;;;;;10.83;2.77;;;10.60;81.00;;;;;;4975515;28;20046;-82
2023/05/27 01:26:07;;;;;;;9.67;2.57;;;10.50;81.00;;;;;;4976948;28;20031;-83
2023/05/27 01:28:33;;;;;;;16.10;3.20;;;10.50;81.20;;;;;;4990948;28;20093;-87
2023/05/27 01:31:11;;;;;;;15.07;2.93;;;10.50;81.40;;;;;;4976833;28;20027;-83
2023/05/27 01:33:40;;;;;;;17.20;3.90;;;10.50;81.40;;;;;;4976817;28;20399;-85
2023/05/27 01:36:16;;;;;;;15.67;3.67;;;10.50;81.30;;;;;;4990789;28;20025;-84
2023/05/27 01:38:43;;;;;;;13.50;3.07;;;10.40;81.70;;;;;;4994574;28;20037;-84
2023/05/27 01:41:09;;;;;;;14.83;3.47;;;10.40;81.70;;;;;;4993322;28;20052;-84
2023/05/27 01:43:38;;;;;;;16.40;3.47;;;10.40;82.20;;;;;;4994830;28;20089;-84
2023/05/27 01:46:03;;;;;;;11.30;3.67;;;10.30;82.80;;;;;;4995937;28;20106;-85
2023/05/27 01:48:29;;;;;;;12.30;3.13;;;10.40;82.80;;;;;;4995725;28;20117;-86
2023/05/27 01:50:54;;;;;;;13.50;3.40;;;10.40;83.00;;;;;;4993849;28;20038;-84
2023/05/27 01:53:20;;;;;;;14.90;3.17;;;10.30;82.60;;;;;;4996017;28;20030;-83
2023/05/27 01:55:46;;;;;;;22.80;3.67;;;10.30;82.60;;;;;;4995734;28;20450;-85
2023/05/27 01:58:11;;;;;;;13.27;3.30;;;10.30;82.80;;;;;;4995799;28;20400;-84
2023/05/27 02:00:37;;;;;;;10.47;3.40;;;10.20;83.10;;;;;;4995498;28;20030;-85
2023/05/27 02:03:02;;;;;;;15.40;3.40;;;10.20;83.20;;;;;;4995526;28;20161;-85
2023/05/27 02:05:28;;;;;;;14.27;3.83;;;10.20;83.40;;;;;;4995562;28;20034;-85
2023/05/27 02:07:55;;;;;;;11.07;2.67;;;10.20;83.20;;;;;;4994251;28;20030;-84
2023/05/27 02:10:20;;;;;;;17.87;3.37;;;10.20;83.30;;;;;;4978213;28;20394;-85
2023/05/27 02:12:47;;;;;;;12.13;4.20;;;10.20;83.30;;;;;;4994068;28;20038;-84
2023/05/27 02:15:13;;;;;;;14.20;3.33;;;10.20;83.70;;;;;;4995447;28;20359;-84
2023/05/27 02:17:39;;;;;;;17.47;3.57;;;10.20;83.70;;;;;;4995331;28;20081;-85
2023/05/27 02:20:05;;;;;;;11.10;3.33;;;10.10;83.90;;;;;;4993922;28;20056;-84
2023/05/27 02:22:31;;;;;;;11.67;3.43;;;10.10;84.10;;;;;;4995381;28;20483;-85
2023/05/27 02:24:56;;;;;;;13.33;3.43;;;10.10;84.20;;;;;;4995038;28;20125;-85
2023/05/27 02:27:22;;;;;;;13.47;3.30;;;10.10;84.40;;;;;;4994015;28;20109;-86
2023/05/27 02:29:47;;;;;;;19.40;5.00;;;10.10;84.70;;;;;;4977552;28;20104;-84
2023/05/27 02:32:13;;;;;;;10.73;2.83;;;10.10;85.70;;;;;;4993869;28;20031;-85
2023/05/27 02:34:40;;;;;;;17.30;3.57;;;10.10;85.10;;;;;;4995040;28;20092;-85
2023/05/27 02:37:06;;;;;;;11.77;3.27;;;10.00;85.50;;;;;;4993660;28;20125;-86
2023/05/27 02:39:32;;;;;;;16.33;4.10;;;10.00;84.90;;;;;;4994551;28;20117;-84
2023/05/27 02:41:58;;;;;;;12.50;3.23;;;10.00;85.10;;;;;;4994873;28;20045;-84
2023/05/27 02:44:24;;;;;;;14.67;3.23;;;10.00;85.80;;;;;;4994755;28;20113;-85
2023/05/27 02:46:49;;;;;;;13.60;3.50;;;10.00;86.40;;;;;;4994893;28;20042;-85
2023/05/27 02:49:16;;;;;;;14.17;3.30;;;9.90;86.10;;;;;;4993811;28;20368;-85
2023/05/27 02:51:42;;;;;;;16.60;3.77;;;9.90;86.50;;;;;;4993468;28;20037;-86
2023/05/27 02:54:08;;;;;;;15.00;3.87;;;9.90;86.10;;;;;;4993671;28;20026;-85
2023/05/27 02:56:33;;;;;;;10.23;2.80;;;9.80;86.00;;;;;;4993506;28;20033;-85
2023/05/27 02:58:59;;;;;;;13.90;3.73;;;9.80;86.60;;;;;;4993425;28;20042;-85
2023/05/27 03:01:24;;;;;;;12.70;2.97;;;9.80;86.70;;;;;;4993490;28;20501;-84
2023/05/27 03:03:50;;;;;;;16.60;3.30;;;9.80;87.00;;;;;;4993483;28;20039;-85
2023/05/27 03:06:16;;;;;;;13.80;3.67;;;9.80;87.40;;;;;;4994440;28;20042;-84
2023/05/27 03:08:41;;;;;;;11.50;3.43;;;9.80;88.00;;;;;;4994308;28;20034;-84
2023/05/27 03:11:07;;;;;;;16.20;4.10;;;9.70;87.80;;;;;;4977508;28;20476;-83
2023/05/27 03:13:32;;;;;;;16.37;4.37;;;9.70;87.90;;;;;;4994541;28;20084;-84
2023/05/27 03:15:58;;;;;;;16.93;4.23;;;9.60;87.80;;;;;;4994230;28;20077;-84
2023/05/27 03:18:24;;;;;;;13.10;4.03;;;9.70;87.70;;;;;;4976832;28;20034;-85
2023/05/27 03:20:50;;;;;;;17.40;4.07;;;9.60;87.70;;;;;;4992947;28;20057;-84
2023/05/27 03:23:16;;;;;;;20.27;3.43;;;9.60;87.80;;;;;;4976832;28;20493;-85
2023/05/27 03:25:42;;;;;;;18.10;3.80;;;9.60;88.00;;;;;;4993035;28;20136;-84
2023/05/27 03:28:07;;;;;;;12.23;3.40;;;9.60;88.10;;;;;;4994293;28;20146;-84
2023/05/27 03:30:33;;;;;;;15.37;4.23;;;9.50;88.10;;;;;;4976747;28;20031;-84
2023/05/27 03:32:58;;;;;;;15.93;3.80;;;9.50;88.50;;;;;;4992901;28;20039;-85
2023/05/27 03:35:24;;;;;;;16.20;3.23;;;9.50;88.60;;;;;;4994330;28;20090;-84
2023/05/27 03:37:50;;;;;;;14.33;3.77;;;9.50;88.60;;;;;;4992873;28;20076;-84
2023/05/27 03:40:15;;;;;;;12.23;3.80;;;9.50;89.00;;;;;;4993050;28;20126;-84
2023/05/27 03:42:41;;;;;;;15.53;3.50;;;9.50;88.80;;;;;;4992707;28;20035;-84
2023/05/27 03:45:07;;;;;;;16.67;3.10;;;9.50;88.80;;;;;;4960510;28;20121;-84
2023/05/27 03:47:34;;;;;;;12.07;3.23;;;9.40;88.80;;;;;;4994101;28;20056;-84
2023/05/27 03:50:00;;;;;;;16.13;4.47;;;9.40;89.30;;;;;;4976697;28;20435;-84
2023/05/27 03:52:26;;;;;;;16.47;4.03;;;9.40;89.60;;;;;;4997865;28;20062;-84
2023/05/27 03:54:51;;;;;;;14.20;3.73;;;9.40;89.70;;;;;;4998014;28;20037;-84
2023/05/27 03:57:17;;;;;;;21.03;3.63;;;9.40;89.60;;;;;;4997799;28;20538;-84
2023/05/27 03:59:43;;;;;;;16.37;3.60;;;9.50;89.60;;;;;;4997975;28;20396;-84
2023/05/27 04:02:08;;;;;;;13.97;2.50;;;9.40;89.50;;;;;;4996788;28;20037;-85
2023/05/27 04:04:34;;;;;;;13.23;3.70;;;9.50;89.70;;;;;;4980407;28;20105;-85
2023/05/27 04:07:00;;;;;;;13.93;3.30;;;9.50;89.90;;;;;;4996538;28;20038;-84
2023/05/27 04:09:26;;;;;;;16.93;3.60;;;9.40;89.80;;;;;;4996412;28;20368;-85
2023/05/27 04:11:52;;;;;;;11.57;3.40;;;9.40;89.80;;;;;;4997654;28;20031;-84
2023/05/27 04:14:17;;;;;;;16.33;3.33;;;9.40;90.00;;;;;;4996364;28;20018;-85
2023/05/27 04:16:43;;;;;;;19.63;3.50;;;9.40;90.00;;;;;;4997604;28;20363;-85
2023/05/27 04:19:09;;;;;;;15.93;3.77;;;9.40;90.00;;;;;;4998085;28;20454;-85
2023/05/27 04:21:35;;;;;;;15.77;3.40;;;9.40;90.10;;;;;;4997475;28;20029;-85
2023/05/27 04:24:03;;;;;;;10.47;2.50;;;9.50;90.30;;;;;;4980194;28;20069;-85
2023/05/27 04:26:28;;;;;;;10.27;3.70;;;9.50;90.20;;;;;;4996398;28;20038;-84
2023/05/27 04:28:54;;;;;;;15.27;3.40;;;9.50;90.30;;;;;;4996155;28;20497;-84
2023/05/27 04:31:19;;;;;;;14.80;3.27;;;9.60;90.30;;;;;;4997248;28;20041;-85
2023/05/27 04:33:45;;;;;;;16.23;3.87;;;9.50;90.30;;;;;;4997153;28;20041;-84
2023/05/27 04:36:11;;;;;;;11.90;3.03;;;9.50;90.40;;;;;;4997347;28;20030;-84
2023/05/27 04:38:37;;;;;;;15.17;3.50;;;9.50;90.40;;;;;;4995869;28;20058;-86
2023/05/27 04:41:03;;;;;;;15.23;3.70;;;9.60;90.50;;;;;;4995880;28;20038;-84
2023/05/27 04:43:30;;;;;;;9.40;2.67;;;9.60;90.60;;;;;;4997196;28;20137;-84
2023/05/27 04:45:59;;;;;;;17.43;3.07;;;9.60;90.60;;;;;;4997096;28;20093;-85
2023/05/27 04:48:25;;;;;;;18.03;3.33;;;9.60;90.70;;;;;;4995825;28;20023;-84
2023/05/27 04:50:53;;;;;;;15.23;3.87;;;9.70;90.80;;;;;;4996594;28;20073;-85
2023/05/27 04:53:19;;;;;;;15.17;4.10;;;9.70;90.90;;;;;;4987273;28;20125;-82
2023/05/27 04:55:45;;;;;;;13.70;3.53;;;9.80;91.10;;;;;;4995917;28;20101;-82
2023/05/27 04:58:11;;;;;;;9.90;2.87;;;9.80;91.10;;;;;;4995458;28;20030;-85
2023/05/27 05:00:49;;;;;;;15.37;3.33;;;9.80;91.20;;;;;;4996962;28;20046;-83
2023/05/27 05:03:20;;;;;;;26.50;3.87;;;9.80;91.30;;;;;;4995981;28;20046;-86
2023/05/27 05:05:51;;;;;;;16.57;4.40;;;9.90;91.40;;;;;;4994291;28;20042;-85
2023/05/27 05:08:18;;;;;;;18.27;3.87;;;9.90;91.20;;;;;;4996604;28;20513;-84
2023/05/27 05:10:45;;;;;;;17.30;3.07;;;9.90;91.20;;;;;;4995403;28;20030;-85
2023/05/27 05:13:11;;;;;;;15.93;3.73;;;9.90;91.20;;;;;;4996351;28;20022;-85
2023/05/27 05:15:37;;;;;;;11.27;2.80;;;10.00;91.30;;;;;;4996320;28;20058;-85
2023/05/27 05:18:03;;;;;;;13.20;3.63;;;10.00;91.30;;;;;;4996626;28;20116;-84
2023/05/27 05:20:28;;;;;;;16.97;3.03;;;10.00;91.30;;;;;;4995436;28;20165;-85
2023/05/27 05:22:55;;;;;;;18.50;3.83;;;10.10;91.40;;;;;;4996442;28;20050;-86
2023/05/27 05:25:21;;;;;;;13.20;3.50;;;10.10;91.50;;;;;;4996242;28;20106;-85
2023/05/27 05:27:47;;;;;;;17.17;3.77;;;10.10;91.50;;;;;;4994984;28;20035;-83
2023/05/27 05:30:12;;;;;;;13.27;2.40;;;10.20;91.60;;;;;;4996281;28;20113;-86
2023/05/27 05:32:38;;;;;;;15.50;3.43;;;10.20;91.60;;;;;;4995052;28;20109;-83
2023/05/27 05:35:04;;;;;;;12.63;3.67;;;10.30;91.70;;;;;;4978771;28;20427;-83
2023/05/27 05:37:30;;;;;;;18.37;4.57;;;10.30;91.80;;;;;;4996552;28;20030;-84
2023/05/27 05:39:55;;;;;;;15.10;3.80;;;10.40;91.70;;;;;;4996274;28;20085;-82
2023/05/27 05:42:21;;;;;;;16.07;3.50;;;10.40;91.90;;;;;;4995942;28;20022;-81
2023/05/27 05:44:47;;;;;;;16.40;3.77;;;10.40;92.00;;;;;;4995833;28;20110;-87
2023/05/27 05:47:13;;;;;;;9.10;2.50;;;10.50;92.20;;;;;;4994785;28;20474;-85
2023/05/27 05:49:38;;;;;;;10.03;2.77;;;10.50;92.00;;;;;;4995891;28;20037;-80
2023/05/27 05:52:04;;;;;;;13.67;3.40;;;10.50;91.90;;;;;;4994944;28;20026;-86
2023/05/27 05:54:30;;;;;;;18.13;2.90;;;10.60;92.00;;;;;;4994769;28;20367;-79
2023/05/27 05:56:55;;;;;;;21.70;3.73;;;10.60;92.00;;;;;;4978076;28;20503;-83
2023/05/27 05:59:21;;;;;;;18.13;3.23;;;10.70;92.20;;;;;;4994533;28;20038;-85
2023/05/27 06:01:46;;;;;;;18.10;3.63;;;10.70;92.10;;;;;;4995661;28;20037;-82
2023/05/27 06:04:13;;;;;;;16.90;3.73;;;10.70;92.20;;;;;;4994548;28;20044;-82
2023/05/27 06:06:40;;;;;;;13.70;3.30;;;10.80;92.30;;;;;;4994240;28;20511;-85
2023/05/27 06:09:05;;;;;;;16.40;3.50;;;10.80;92.20;;;;;;4988582;28;20019;-84
2023/05/27 06:11:31;;;;;;;16.43;3.83;;;10.80;92.20;;;;;;4992401;28;20096;-84
2023/05/27 06:13:57;;;;;;;15.83;3.43;;;10.90;92.30;;;;;;4995145;28;20050;-85
2023/05/27 06:16:22;;;;;;;18.87;4.10;;;10.90;92.30;;;;;;4994160;28;20031;-85
2023/05/27 06:18:48;;;;;;;19.33;3.60;;;11.00;92.40;;;;;;4995423;28;20058;-87
2023/05/27 06:21:14;;;;;;;12.00;2.97;;;11.00;92.30;;;;;;4995497;28;20438;-85
2023/05/27 06:23:39;;;;;;;18.27;4.17;;;11.00;92.20;;;;;;4994947;28;20503;-81
2023/05/27 06:26:05;;;;;;;18.87;3.87;;;11.10;92.30;;;;;;5010402;28;20398;-86
2023/05/27 06:28:30;;;;;;;17.40;4.17;;;11.10;92.30;;;;;;5010379;28;20034;-82
2023/05/27 06:30:56;;;;;;;18.93;3.70;;;11.20;92.30;;;;;;4988937;28;20109;-84
2023/05/27 06:33:22;;;;;;;19.20;3.87;;;11.20;92.50;;;;;;4998675;28;20533;-87
2023/05/27 06:35:47;;;;;;;13.97;3.60;;;11.30;92.20;;;;;;4979066;28;20039;-84
2023/05/27 06:38:13;;;;;;;20.70;4.10;;;11.30;92.20;;;;;;4990676;28;20031;-86
2023/05/27 06:40:39;;;;;;;16.73;3.37;;;11.30;92.20;;;;;;4975443;28;20046;-82
2023/05/27 06:43:04;;;;;;;14.87;3.37;;;11.40;92.10;;;;;;4974248;28;20023;-75
2023/05/27 06:45:31;;;;;;;18.20;3.80;;;11.40;92.10;;;;;;4973974;28;20038;-75
2023/05/27 06:47:57;;;;;;;19.17;3.87;;;11.50;92.20;;;;;;4975259;28;20058;-75
2023/05/27 06:50:23;;;;;;;15.83;4.37;;;11.60;92.20;;;;;;4975216;28;20093;-75
2023/05/27 06:52:49;;;;;;;15.80;3.65;;;11.50;92.10;;;;;;4975354;28;20031;-75
2023/05/27 06:55:15;;;;;;;13.15;3.35;;;11.70;92.10;;;;;;4974919;28;20034;-75
2023/05/27 06:57:40;;;;;;;14.73;4.22;;;11.70;92.10;;;;;;4990183;28;20419;-75
2023/05/27 07:00:08;;;;;;;16.75;3.53;;;11.80;92.00;;;;;;4974945;28;20043;-75
2023/05/27 07:02:33;;;;;;;14.15;4.53;;;11.80;92.00;;;;;;4974102;28;20042;-75
2023/05/27 07:04:59;;;;;;;16.88;4.07;;;11.90;92.00;;;;;;4999184;28;20038;-76
2023/05/27 07:07:25;;;;;;;16.08;4.57;;;12.00;92.00;;;;;;5009581;28;20485;-75
2023/05/27 07:09:50;;;;;;;13.55;3.70;;;12.00;91.80;;;;;;4993162;28;20049;-77
2023/05/27 07:12:17;;;;;;;18.25;5.47;;;12.10;91.80;;;;;;4994726;28;20038;-75
2023/05/27 07:14:42;;;;;;;17.10;4.32;;;12.10;91.70;;;;;;4994319;28;20025;-75
2023/05/27 07:17:08;;;;;;;19.33;4.15;;;12.20;91.70;;;;;;5009578;28;20365;-75
2023/05/27 07:19:33;;;;;;;18.75;4.22;;;12.20;91.60;;;;;;4994298;28;20038;-76
2023/05/27 07:21:59;;;;;;;13.13;3.95;;;12.30;91.50;;;;;;4992881;28;20038;-76
2023/05/27 07:24:25;;;;;;;16.88;4.40;;;12.30;91.40;;;;;;5008800;28;20054;-76
2023/05/27 07:26:50;;;;;;;16.92;3.85;;;12.40;91.40;;;;;;4993662;28;20030;-76
2023/05/27 07:29:16;;;;;;;14.48;4.13;;;12.40;91.30;;;;;;4992664;28;20092;-76
2023/05/27 07:31:42;;;;;;;13.57;4.22;;;12.50;91.30;;;;;;4992765;28;20109;-76
2023/05/27 07:34:07;;;;;;;17.33;4.43;;;12.60;91.20;;;;;;4992628;28;20027;-75
2023/05/27 07:36:34;;;;;;;12.00;3.70;;;12.70;91.20;;;;;;4992648;28;20023;-76
2023/05/27 07:39:00;;;;;;;12.70;4.20;;;12.70;91.10;;;;;;5008798;28;20085;-76
2023/05/27 07:41:26;;;;;;;18.10;4.20;;;12.80;91.00;;;;;;4993086;28;20027;-75
2023/05/27 07:43:51;;;;;;;15.77;3.75;;;12.80;91.00;;;;;;5008929;28;20121;-76
2023/05/27 07:46:17;;;;;;;17.23;4.55;;;12.90;90.90;;;;;;4993945;28;20030;-76
2023/05/27 07:48:42;;;;;;;15.85;3.17;;;13.00;90.90;;;;;;4985475;28;20046;-76
2023/05/27 07:51:08;;;;;;;13.25;3.38;;;13.10;90.80;;;;;;4985065;28;20101;-76
2023/05/27 07:53:35;;;;;;;17.42;4.40;;;13.20;90.70;;;;;;4993647;28;20395;-76
2023/05/27 07:56:01;;;;;;;13.45;3.80;;;13.30;90.60;;;;;;4992504;28;20038;-77
2023/05/27 07:58:26;;;;;;;18.98;4.70;;;13.40;90.50;;;;;;4992498;28;20407;-75
2023/05/27 08:00:52;;;;;;;17.50;4.63;;;13.40;90.30;;;;;;4986499;28;20027;-76
2023/05/27 08:03:18;;;;;;;19.45;4.15;;;13.50;90.10;;;;;;4982323;28;20038;-76
2023/05/27 08:05:43;;;;;;;17.95;4.93;;;13.60;90.00;;;;;;4984241;28;20027;-75
2023/05/27 08:08:09;;;;;;;20.67;5.20;;;13.70;89.80;;;;;;4981177;28;20019;-76
2023/05/27 08:10:34;;;;;;;15.98;4.50;;;13.80;89.70;;;;;;4982760;28;20077;-75
2023/05/27 08:13:00;;;;;;;18.60;3.80;;;13.80;89.40;;;;;;4998845;28;20380;-75
2023/05/27 08:15:26;;;;;;;16.63;4.43;;;13.90;89.30;;;;;;4981278;28;20054;-76
2023/05/27 08:17:53;;;;;;;19.65;4.57;;;14.00;89.10;;;;;;4982807;28;20030;-77
2023/05/27 08:20:19;;;;;;;15.75;4.78;;;14.10;88.80;;;;;;4998203;28;20479;-76
2023/05/27 08:22:45;;;;;;;13.18;3.85;;;14.20;88.60;;;;;;4981246;28;20026;-76
2023/05/27 08:25:11;;;;;;;11.68;3.95;;;14.30;88.50;;;;;;4984399;28;20089;-76
2023/05/27 08:27:54;;;;;;;13.35;3.88;;;14.40;88.30;;;;;;4976726;28;20039;-76
2023/05/27 08:30:20;;;;;;;16.60;4.60;;;14.50;88.00;;;;;;4989086;28;20035;-76
2023/05/27 08:32:46;;;;;;;15.38;3.85;;;14.50;87.80;;;;;;4972869;28;20109;-76
2023/05/27 08:35:12;;;;;;;14.75;4.57;;;14.60;87.60;;;;;;4989320;28;20448;-75
2023/05/27 08:37:39;;;;;;;12.65;4.00;;;14.70;87.30;;;;;;4975556;28;20038;-76
2023/05/27 08:40:07;;;;;;;14.63;4.03;;;14.80;87.10;;;;;;4977616;28;20026;-77
2023/05/27 08:42:33;;;;;;;19.88;4.78;;;14.90;86.80;;;;;;4977595;28;20435;-77
2023/05/27 08:44:59;;;;;;;12.63;3.90;;;15.00;86.50;;;;;;4992475;28;20475;-77
2023/05/27 08:47:30;;;;;;;13.68;4.55;;;15.10;86.10;;;;;;4976260;28;20041;-77
2023/05/27 08:49:58;;;;;;;16.73;4.57;;;15.20;85.60;;;;;;4977185;28;20031;-75
2023/05/27 08:52:26;;;;;;;19.25;5.15;;;15.30;85.10;;;;;;4977361;28;20034;-74
2023/05/27 08:54:52;;;;;;;20.35;4.53;;;15.40;85.00;;;;;;4977317;28;20127;-75
2023/05/27 08:57:24;;;;;;;14.52;3.55;;;15.50;84.70;;;;;;4977238;28;20154;-75
2023/05/27 08:59:51;;;;;;;16.15;4.43;;;15.50;84.50;;;;;;4977436;28;20118;-74
2023/05/27 09:02:20;;;;;;;15.05;4.53;;;15.70;84.10;;;;;;4992213;28;20396;-75
2023/05/27 09:04:46;;;;;;;12.43;4.25;;;15.80;83.80;;;;;;4977163;28;20034;-75
2023/05/27 09:07:12;;;;;;;12.57;4.03;;;15.80;84.20;;;;;;4975889;28;20368;-75
2023/05/27 09:09:39;;;;;;;15.20;4.60;;;15.90;83.30;;;;;;4976931;28;20110;-74
2023/05/27 09:12:06;;;;;;;13.38;3.88;;;16.10;83.00;;;;;;4975722;28;20026;-75
2023/05/27 09:14:32;;;;;;;15.10;4.47;;;16.10;82.70;;;;;;4976992;28;20022;-76
2023/05/27 09:17:05;;;;;;;14.60;4.30;;;16.20;82.40;;;;;;4976918;28;20046;-76
2023/05/27 09:19:31;;;;;;;13.68;3.85;;;16.40;81.90;;;;;;4976739;28;20034;-76
2023/05/27 09:21:57;;;;;;;15.80;4.85;;;16.50;81.50;;;;;;4991864;28;20045;-75
2023/05/27 09:24:23;;;;;;;14.38;4.43;;;16.50;80.80;;;;;;4975414;28;20051;-75
2023/05/27 09:26:53;;;;;;;15.65;4.55;;;16.60;80.60;;;;;;4976949;28;20484;-75
2023/05/27 09:29:19;;;;;;;13.90;4.00;;;16.70;80.20;;;;;;4975216;28;20062;-76
2023/05/27 09:31:45;;;;;;;16.33;4.45;;;16.80;79.90;;;;;;4975454;28;20026;-76
2023/05/27 09:34:15;;;;;;;12.73;4.05;;;16.90;78.90;;;;;;4976972;28;20022;-76
2023/05/27 09:36:45;;;;;;;13.50;4.28;;;17.00;78.70;;;;;;4989724;28;20033;-74
2023/05/27 09:39:13;;;;;;;16.02;4.75;;;17.10;78.30;;;;;;5029552;28;20466;-75
2023/05/27 09:41:40;;;;;;;13.57;4.55;;;17.20;78.10;;;;;;5028820;28;20018;-75
2023/05/27 09:44:07;;;;;;;13.80;4.43;;;17.30;77.80;;;;;;5014013;28;20033;-76
2023/05/27 09:46:33;;;;;;;14.77;4.07;;;17.40;77.50;;;;;;5015412;28;20026;-75
2023/05/27 09:49:06;;;;;;;13.70;4.47;;;17.50;77.30;;;;;;5029566;28;20033;-76
2023/05/27 09:51:33;;;;;;;11.98;3.53;;;17.60;76.80;;;;;;5016778;28;20026;-75
2023/05/27 09:53:59;;;;;;;15.43;4.18;;;17.70;76.50;;;;;;4994789;28;20105;-74
2023/05/27 09:56:27;;;;;;;13.95;4.22;;;17.90;76.10;;;;;;4978455;28;20106;-75
2023/05/27 09:58:56;;;;;;;11.60;3.47;;;17.90;75.90;;;;;;4976065;28;20022;-75
2023/05/27 10:01:28;;;;;;;17.20;4.20;;;18.00;75.60;;;;;;4976048;28;20450;-75
2023/05/27 10:03:54;;;;;;;14.68;4.30;;;18.20;75.30;;;;;;4974883;28;20364;-74
2023/05/27 10:06:21;;;;;;;14.48;3.63;;;18.20;74.80;;;;;;4974671;28;20031;-75
2023/05/27 10:08:47;;;;;;;11.68;3.10;;;18.40;74.40;;;;;;4975749;28;20045;-75
2023/05/27 10:11:13;;;;;;;16.80;3.90;;;18.50;74.20;;;;;;4976030;28;20035;-75
2023/05/27 10:13:39;;;;;;;13.43;4.57;;;18.60;73.60;;;;;;4974610;28;20388;-75
2023/05/27 10:16:05;;;;;;;12.38;4.20;;;18.60;73.00;;;;;;4975976;28;20027;-75
2023/05/27 10:18:33;;;;;;;10.70;3.70;;;18.70;71.90;;;;;;4975958;28;20030;-76
2023/05/27 10:21:00;;;;;;;10.70;3.08;;;18.80;71.40;;;;;;4975735;28;20035;-78
2023/05/27 10:23:27;;;;;;;15.65;4.55;;;19.00;71.30;;;;;;4990856;28;20487;-76
2023/05/27 10:26:00;;;;;;;11.98;3.45;;;19.10;70.90;;;;;;4975496;28;20101;-77
2023/05/27 10:28:31;;;;;;;12.07;3.25;;;19.30;69.80;;;;;;4975784;28;20542;-77
2023/05/27 10:31:08;;;;;;;16.60;4.32;;;19.60;69.10;;;;;;4983622;28;20110;-77
2023/05/27 10:33:47;;;;;;;12.23;4.38;;;19.80;68.30;;;;;;4999811;28;20506;-77
2023/05/27 10:36:15;;;;;;;12.68;3.38;;;20.10;68.10;;;;;;5004725;28;20030;-77
2023/05/27 10:38:56;;;;;;;10.82;2.70;;;20.40;67.60;;;;;;4994631;28;20036;-76
2023/05/27 10:41:23;;;;;;;11.57;3.30;;;20.70;66.10;;;;;;4993507;28;20076;-76
2023/05/27 10:43:59;;;;;;;11.10;3.75;;;21.00;65.60;;;;;;5009655;28;20109;-75
2023/05/27 10:46:25;;;;;;;13.25;3.67;;;21.30;64.70;;;;;;4993784;28;20032;-76
2023/05/27 10:48:51;;;;;;;12.10;3.13;;;21.50;64.60;;;;;;4994589;28;20089;-76
2023/05/27 10:51:17;;;;;;;13.38;4.07;;;21.70;64.30;;;;;;4994911;28;20034;-75
2023/05/27 10:53:42;;;;;;;15.57;3.15;;;22.10;63.30;;;;;;4994737;28;20081;-75
2023/05/27 10:56:09;;;;;;;10.35;2.90;;;22.60;63.00;;;;;;4994527;28;20065;-74
2023/05/27 10:58:37;;;;;;;12.25;3.00;;;23.20;62.00;;;;;;4993419;28;20034;-74
2023/05/27 11:01:14;;;;;;;13.02;3.30;;;23.80;61.10;;;;;;4985447;28;20058;-75
2023/05/27 11:03:48;;;;;;;10.52;3.13;;;24.60;58.50;;;;;;4983295;28;20073;-75
2023/05/27 11:06:16;;;;;;;12.10;3.15;;;25.20;58.10;;;;;;4984234;28;20022;-75
2023/05/27 11:08:42;;;;;;;11.02;3.00;;;25.90;57.90;;;;;;4984721;28;20042;-75
2023/05/27 11:11:11;;;;;;;11.55;3.22;;;26.70;57.10;;;;;;4992146;28;20030;-75
2023/05/27 11:13:44;;;;;;;12.90;3.92;;;27.30;55.20;;;;;;4988998;28;20027;-75
2023/05/27 11:16:10;;;;;;;10.57;2.63;;;28.00;53.80;;;;;;4993112;28;20066;-77
2023/05/27 11:18:36;;;;;;;10.48;3.33;;;28.60;52.60;;;;;;4993774;28;20389;-76
2023/05/27 11:21:04;;;;;;;13.30;3.08;;;29.10;50.10;;;;;;4992646;28;20105;-76
2023/05/27 11:23:49;;;;;;;10.30;3.17;;;29.50;49.30;;;;;;4994108;28;20022;-75
2023/05/27 11:26:22;;;;;;;12.98;2.83;;;30.00;46.90;;;;;;4993887;28;20125;-76
2023/05/27 11:28:52;;;;;;;9.85;3.00;;;30.50;46.60;;;;;;4992705;28;20092;-75
2023/05/27 11:31:20;;;;;;;11.05;3.50;;;30.90;46.40;;;;;;4993651;28;20034;-76
2023/05/27 11:33:49;;;;;;;11.10;3.58;;;31.20;45.10;;;;;;4982763;28;20090;-76
2023/05/27 11:36:16;;;;;;;12.07;3.13;;;31.50;44.80;;;;;;4989655;28;20109;-76
2023/05/27 11:38:55;;;;;;;8.07;2.65;;;31.70;43.90;;;;;;4993697;28;20096;-78
2023/05/27 11:41:23;;;;;;;8.13;2.17;;;31.90;43.00;;;;;;4992595;28;20022;-77
2023/05/27 11:43:59;;;;;;;7.68;2.40;;;31.90;42.60;;;;;;4993825;28;20030;-76
2023/05/27 11:46:35;;;;;;;8.55;2.58;;;31.80;41.70;;;;;;4993790;28;20056;-77
2023/05/27 11:49:02;;;;;;;8.30;2.63;;;31.60;41.20;;;;;;4993777;28;20382;-77
2023/05/27 11:51:29;;;;;;;8.63;2.33;;;31.40;41.00;;;;;;4993928;28;20026;-76
2023/05/27 11:53:55;;;;;;;9.38;2.78;;;31.30;40.70;;;;;;4993734;28;20030;-77
2023/05/27 11:56:21;;;;;;;8.25;2.45;;;31.20;40.50;;;;;;5009035;28;20081;-76
2023/05/27 11:58:47;;;;;;;8.05;2.70;;;31.10;40.30;;;;;;4988331;28;20038;-76
2023/05/27 12:01:13;;;;;;;11.40;2.78;;;31.00;40.20;;;;;;4974448;28;20031;-77
2023/05/27 12:03:38;;;;;;;7.07;2.65;;;31.00;40.00;;;;;;4974335;28;20035;-76
2023/05/27 12:06:04;;;;;;;10.90;3.08;;;31.00;39.80;;;;;;4973152;28;20031;-76
2023/05/27 12:08:30;;;;;;;8.25;3.00;;;31.00;39.80;;;;;;4989414;28;20047;-76
2023/05/27 12:10:57;;;;;;;10.15;3.10;;;31.00;40.20;;;;;;4989344;28;20122;-76
2023/05/27 12:13:23;;;;;;;7.00;2.72;;;30.90;39.80;;;;;;4978227;28;20471;-78
2023/05/27 12:15:49;;;;;;;6.35;2.38;;;30.90;39.90;;;;;;4978081;28;20066;-77
2023/05/27 12:18:17;;;;;;;8.98;3.10;;;30.90;40.00;;;;;;4976635;28;20081;-76
2023/05/27 12:20:44;;;;;;;9.95;2.85;;;30.70;40.20;;;;;;4977969;28;20062;-75
2023/05/27 12:23:10;;;;;;;9.95;3.10;;;30.70;40.30;;;;;;4976837;28;20047;-75
2023/05/27 12:25:35;;;;;;;10.80;3.22;;;30.80;40.10;;;;;;4977862;28;20393;-76
2023/05/27 12:28:01;;;;;;;10.20;3.33;;;30.80;40.00;;;;;;4997521;28;20042;-76
2023/05/27 12:30:26;;;;;;;6.13;2.17;;;30.90;40.00;;;;;;4997138;28;20030;-76
2023/05/27 12:32:52;;;;;;;8.13;2.95;;;30.90;39.80;;;;;;4995639;28;20499;-77
2023/05/27 12:35:18;;;;;;;8.52;2.65;;;31.00;39.60;;;;;;4997263;28;20072;-76
2023/05/27 12:37:44;;;;;;;9.30;2.85;;;31.00;39.50;;;;;;4995804;28;20023;-77
2023/05/27 12:40:14;;;;;;;7.95;2.60;;;31.00;39.20;;;;;;4995798;28;20403;-76